Latest Weather Observations for Sellicks Hill

IDS60901

Issued at 12:21 am CST Saturday 15 August 2020 (issued every 10 minutes, with the page automatically refreshed every 10 minutes)

About weather observations | Map of Adelaide area stations | Latest observations for Adelaide area | Other Formats
Station Details ID: 023886 Name: MOUNT TERRIBLE RADAR Lat: -35.33 Lon: 138.50 Height: 385.7 m
Data from the previous 72 hours. | See also: Recent months at Sellicks Hill
Date/Time
CST
Temp
°C
App
Temp
°C
Dew
Point
°C
Rel
Hum
%
Delta-T
°C
Wind Press
QNH
hPa
Press
MSL
hPa
Rain since
9am
mm
Dir  Spd
km/h
Gust
km/h
Spd
kts
Gust
kts
15/12:00am - - - - - NW 6 13 3 7 - - -
 
Date/Time
CST
Temp
°C
App
Temp
°C
Dew
Point
°C
Rel
Hum
%
Delta-T
°C
Wind Press
QNH
hPa
Press
MSL
hPa
Rain since
9am
mm
Dir  Spd
km/h
Gust
km/h
Spd
kts
Gust
kts
14/11:30pm - - - - - NNW 6 11 3 6 - - -
14/11:00pm - - - - - NNW 7 13 4 7 - - -
14/10:30pm - - - - - NNW 6 13 3 7 - - -
14/10:00pm - - - - - NW 6 9 3 5 - - -
14/09:30pm - - - - - NNW 4 7 2 4 - - -
14/09:00pm - - - - - NW 4 7 2 4 - - -
14/08:30pm - - - - - WNW 4 7 2 4 - - -
14/08:00pm - - - - - NW 4 9 2 5 - - -
14/07:30pm - - - - - NW 6 9 3 5 - - -
14/07:00pm - - - - - WNW 4 9 2 5 - - -
14/06:30pm - - - - - WNW 6 11 3 6 - - -
14/06:00pm - - - - - NW 6 9 3 5 - - -
14/05:30pm - - - - - NNW 6 13 3 7 - - -
14/05:00pm - - - - - NNW 7 15 4 8 - - -
14/04:30pm - - - - - NNW 11 17 6 9 - - -
14/04:00pm - - - - - NNW 9 19 5 10 - - -
14/03:30pm - - - - - NNW 11 22 6 12 - - -
14/03:00pm - - - - - NNW 13 22 7 12 - - -
14/02:30pm - - - - - NNW 13 22 7 12 - - -
14/02:00pm - - - - - NNW 15 24 8 13 - - -
14/01:30pm - - - - - NNW 13 22 7 12 - - -
14/01:00pm - - - - - NNW 15 24 8 13 - - -
14/12:30pm - - - - - NNW 17 24 9 13 - - -
14/12:00pm - - - - - NNW 15 28 8 15 - - -
14/11:30am - - - - - NNW 15 26 8 14 - - -
14/11:00am - - - - - NNW 13 28 7 15 - - -
14/10:30am - - - - - NNW 13 28 7 15 - - -
14/10:00am - - - - - NNW 15 26 8 14 - - -
14/09:30am - - - - - NNW 15 22 8 12 - - -
14/09:00am - - - - - NNW 17 26 9 14 - - -
14/08:30am - - - - - NNW 15 22 8 12 - - -
14/08:00am - - - - - NNW 11 20 6 11 - - -
14/07:30am - - - - - NNW 9 15 5 8 - - -
14/07:00am - - - - - NNW 9 15 5 8 - - -
14/06:30am - - - - - NNW 9 15 5 8 - - -
14/06:00am - - - - - NNW 9 17 5 9 - - -
14/05:30am - - - - - NNW 11 19 6 10 - - -
14/05:00am - - - - - NNW 9 15 5 8 - - -
14/04:30am - - - - - NNW 9 15 5 8 - - -
14/04:00am - - - - - NNW 9 17 5 9 - - -
14/03:30am - - - - - NNW 9 17 5 9 - - -
14/03:00am - - - - - NNW 9 17 5 9 - - -
14/02:30am - - - - - NNW 9 17 5 9 - - -
14/02:00am - - - - - NNW 11 17 6 9 - - -
14/01:30am - - - - - NNW 11 19 6 10 - - -
14/01:00am - - - - - NNW 11 19 6 10 - - -
14/12:30am - - - - - NNW 11 17 6 9 - - -
14/12:00am - - - - - NNW 9 15 5 8 - - -
 
Date/Time
CST
Temp
°C
App
Temp
°C
Dew
Point
°C
Rel
Hum
%
Delta-T
°C
Wind Press
QNH
hPa
Press
MSL
hPa
Rain since
9am
mm
Dir  Spd
km/h
Gust
km/h
Spd
kts
Gust
kts
13/11:30pm - - - - - NNW 9 17 5 9 - - -
13/11:00pm - - - - - NNW 9 17 5 9 - - -
13/10:30pm - - - - - NNW 11 20 6 11 - - -
13/10:00pm - - - - - NNW 11 19 6 10 - - -
13/09:30pm - - - - - NNW 9 17 5 9 - - -
13/09:00pm - - - - - NNW 9 15 5 8 - - -
13/08:30pm - - - - - NNW 9 15 5 8 - - -
13/08:00pm - - - - - NNW 9 19 5 10 - - -
13/07:30pm - - - - - NNW 9 15 5 8 - - -
13/07:00pm - - - - - NNW 9 13 5 7 - - -
13/06:30pm - - - - - NNW 9 17 5 9 - - -
13/06:00pm - - - - - NNW 11 17 6 9 - - -
13/05:30pm - - - - - NNW 11 19 6 10 - - -
13/05:00pm - - - - - NNW 11 24 6 13 - - -
13/04:30pm - - - - - NW 15 26 8 14 - - -
13/04:00pm - - - - - NW 17 32 9 17 - - -
13/03:30pm - - - - - NNW 19 30 10 16 - - -
13/03:00pm - - - - - NNW 17 30 9 16 - - -
13/02:30pm - - - - - NNW 17 30 9 16 - - -
13/02:00pm - - - - - NNW 17 32 9 17 - - -
13/01:30pm - - - - - NNW 19 32 10 17 - - -
13/01:00pm - - - - - NNW 19 30 10 16 - - -
13/12:30pm - - - - - NNW 20 30 11 16 - - -
13/12:00pm - - - - - NNW 20 39 11 21 - - -
13/11:30am - - - - - NNW 20 35 11 19 - - -
13/11:00am - - - - - NNW 19 35 10 19 - - -
13/10:30am - - - - - NNW 19 35 10 19 - - -
13/10:00am - - - - - NNW 19 33 10 18 - - -
13/09:30am - - - - - NNW 19 32 10 17 - - -
13/09:00am - - - - - NNW 19 33 10 18 - - -
13/08:30am - - - - - NNW 20 37 11 20 - - -
13/08:00am - - - - - NNW 22 41 12 22 - - -
13/07:30am - - - - - NNW 20 35 11 19 - - -
13/07:00am - - - - - NNW 19 32 10 17 - - -
13/06:30am - - - - - NNW 17 28 9 15 - - -
13/06:00am - - - - - NW 19 28 10 15 - - -
13/05:30am - - - - - NW 20 37 11 20 - - -
13/05:00am - - - - - NW 19 32 10 17 - - -
13/04:30am - - - - - NW 19 32 10 17 - - -
13/04:00am - - - - - NW 19 32 10 17 - - -
13/03:30am - - - - - NW 20 33 11 18 - - -
13/03:00am - - - - - NW 20 37 11 20 - - -
13/02:30am - - - - - NNW 20 35 11 19 - - -
13/02:00am - - - - - NW 22 35 12 19 - - -
13/01:30am - - - - - NW 22 39 12 21 - - -
13/01:00am - - - - - NW 20 37 11 20 - - -
13/12:30am - - - - - NNW 20 33 11 18 - - -
13/12:00am - - - - - NW 19 33 10 18 - - -
 
Date/Time
CST
Temp
°C
App
Temp
°C
Dew
Point
°C
Rel
Hum
%
Delta-T
°C
Wind Press
QNH
hPa
Press
MSL
hPa
Rain since
9am
mm
Dir  Spd
km/h
Gust
km/h
Spd
kts
Gust
kts
12/11:30pm - - - - - NNW 19 33 10 18 - - -
12/11:00pm - - - - - NNW 19 32 10 17 - - -
12/10:30pm - - - - - NNW 19 32 10 17 - - -
12/10:00pm - - - - - NNW 19 30 10 16 - - -
12/09:30pm - - - - - NNW 15 28 8 15 - - -
12/09:00pm - - - - - NNW 15 26 8 14 - - -
12/08:30pm - - - - - NW 15 24 8 13 - - -
12/08:00pm - - - - - NNW 15 24 8 13 - - -
12/07:30pm - - - - - NW 15 26 8 14 - - -
12/07:00pm - - - - - NNW 15 28 8 15 - - -
12/06:30pm - - - - - NNW 13 22 7 12 - - -
12/06:00pm - - - - - NNW 13 20 7 11 - - -
12/05:30pm - - - - - NNW 15 24 8 13 - - -
12/05:00pm - - - - - NNW 17 28 9 15 - - -
12/04:30pm - - - - - NNW 17 33 9 18 - - -
12/04:00pm - - - - - NNW 19 35 10 19 - - -
12/03:30pm - - - - - NNW 19 32 10 17 - - -
12/03:00pm - - - - - NNW 17 32 9 17 - - -
12/02:30pm - - - - - NNW 17 33 9 18 - - -
12/02:00pm - - - - - NNW 17 28 9 15 - - -
12/01:30pm - - - - - NNW 17 33 9 18 - - -
12/01:00pm - - - - - NNW 20 32 11 17 - - -
12/12:30pm - - - - - NNW 19 32 10 17 - - -
12/12:00pm - - - - - NNW 17 28 9 15 - - -
12/11:30am - - - - - NNW 20 35 11 19 - - -
12/11:00am - - - - - NNW 19 32 10 17 - - -
12/10:30am - - - - - NNW 19 32 10 17 - - -
12/10:00am - - - - - NNW 19 35 10 19 - - -
12/09:30am - - - - - NNW 17 28 9 15 - - -
12/09:00am - - - - - NNW 17 28 9 15 - - -
12/08:30am - - - - - NNW 15 28 8 15 - - -
12/08:00am - - - - - NNW 15 28 8 15 - - -
12/07:30am - - - - - NNW 13 22 7 12 - - -
12/07:00am - - - - - NNW 15 28 8 15 - - -
12/06:30am - - - - - NNW 15 26 8 14 - - -
12/06:00am - - - - - NNW 17 28 9 15 - - -
12/05:30am - - - - - N 17 30 9 16 - - -
12/05:00am - - - - - NNW 17 28 9 15 - - -
12/04:30am - - - - - N 13 24 7 13 - - -
12/04:00am - - - - - N 17 30 9 16 - - -
12/03:30am - - - - - NNW 17 28 9 15 - - -
12/03:00am - - - - - NNW 17 24 9 13 - - -
12/02:30am - - - - - NNW 13 26 7 14 - - -
12/02:00am - - - - - N 13 30 7 16 - - -
12/01:30am - - - - - N 13 24 7 13 - - -
12/01:00am - - - - - N 13 33 7 18 - - -
12/12:30am - - - - - N 9 19 5 10 - - -

Latest Capital City Observations: Canberra | Sydney | Melbourne | Brisbane | Adelaide | Perth | Hobart | Darwin

Other formats

Comma delimited format used in spreadsheet applications
http://www.bom.gov.au/fwo/IDS60901/IDS60901.95679.axf

JavaScript Object Notation format (JSON) in row-major order
http://www.bom.gov.au/fwo/IDS60901/IDS60901.95679.json

Data quality

Most of these data are generated automatically and are frequently updated. Quality checks on data are not normally performed. It is possible for incorrect values to appear. Refer to information at About Latest Weather Observations and please check the disclaimer before using these data.